.
WxDataArchive / Data Records for 2013-09-29
2013-09-28 September 2013 2013-09-30

Data Records for Sunday, 29 September 2013

Time	Temp	Chill	HIndex	Humid	Dewpt	 Wind 	HiWind	WindDir	Rain 	Barom 
-----	----	-----	------	-----	-----	------	------	-------	-----	----- 
00:00	64.8	64.8	64.8	66	53.2	0	0	---	0.00	29.991 
00:05	64.7	64.7	64.7	66	53.1	0	0	---	0.00	29.991 
00:10	64.5	64.5	64.5	67	53.3	0	0	---	0.00	29.991 
00:15	64.3	64.3	64.3	67	53.1	0	0	---	0.00	29.994 
00:20	64.2	64.2	64.2	68	53.4	0	0	---	0.00	29.994 
00:25	64.2	64.2	64.2	69	53.8	0	0	---	0.00	29.994 
00:30	64.0	64.0	64.0	69	53.6	0	0	---	0.00	29.997 
00:35	63.9	63.9	63.9	69	53.5	0	0	---	0.00	29.997 
00:40	63.9	63.9	63.9	70	53.9	0	0	---	0.00	29.997 
00:45	63.9	63.9	63.9	70	53.9	0	0	---	0.00	29.990 
00:50	63.7	63.7	63.7	71	54.1	0	0	---	0.00	29.990 
00:55	63.7	63.7	63.7	71	54.1	0	0	---	0.00	29.990 
01:00	63.5	63.5	63.5	72	54.3	0	0	---	0.00	29.988 
01:05	63.5	63.5	63.5	72	54.3	0	0	---	0.00	29.988 
01:10	63.4	63.4	63.4	73	54.6	0	0	---	0.00	29.988 
01:15	63.4	63.4	63.4	73	54.6	0	0	---	0.00	29.987 
01:20	63.2	63.2	63.2	73	54.4	0	0	---	0.00	29.987 
01:25	63.2	63.2	63.2	74	54.8	0	0	---	0.00	29.987 
01:30	63.2	63.2	63.2	74	54.8	0	0	---	0.00	29.991 
01:35	63.2	63.2	63.2	74	54.8	0	0	---	0.00	29.991 
01:40	63.2	63.2	63.2	75	55.1	0	0	---	0.00	29.991 
01:45	63.2	63.2	63.2	75	55.1	0	0	---	0.00	29.988 
01:50	63.1	63.1	63.1	75	55.0	0	0	---	0.00	29.988 
01:55	63.1	63.1	63.1	75	55.0	0	0	---	0.00	29.988 
02:00	62.9	62.9	62.9	76	55.2	0	0	---	0.00	29.987 
02:05	62.9	62.9	62.9	76	55.2	0	0	---	0.00	29.987 
02:10	62.7	62.7	62.7	76	55.0	0	0	---	0.00	29.987 
02:15	62.7	62.7	62.7	77	55.4	0	0	---	0.00	29.984 
02:20	62.6	62.6	62.6	77	55.3	0	0	---	0.00	29.984 
02:25	62.4	62.4	62.4	77	55.1	0	0	---	0.00	29.984 
02:30	62.3	62.3	62.3	78	55.3	0	0	---	0.00	29.985 
02:35	62.1	62.1	62.1	78	55.2	0	0	---	0.00	29.985 
02:40	62.0	62.0	62.0	79	55.4	0	0	---	0.00	29.985 
02:45	62.0	62.0	62.0	79	55.4	0	0	---	0.00	29.981 
02:50	62.0	62.0	62.0	79	55.4	0	0	---	0.00	29.981 
02:55	62.0	62.0	62.0	80	55.8	0	0	---	0.00	29.981 
03:00	62.0	62.0	62.0	80	55.8	0	0	---	0.00	29.978 
03:05	62.1	62.1	62.1	80	55.9	0	0	---	0.00	29.978 
03:10	62.3	62.3	62.3	80	56.0	0	0	---	0.00	29.978 
03:15	62.3	62.3	62.3	79	55.7	0	0	---	0.00	29.973 
03:20	62.4	62.4	62.4	79	55.8	0	0	---	0.00	29.973 
03:25	62.4	62.4	62.4	79	55.8	0	0	---	0.00	29.973 
03:30	62.6	62.6	62.6	79	56.0	0	0	---	0.00	29.970 
03:35	62.6	62.6	62.6	79	56.0	0	0	---	0.00	29.970 
03:40	62.7	62.7	62.7	78	55.7	0	0	---	0.00	29.970 
03:45	62.9	62.9	62.9	78	55.9	0	0	---	0.00	29.968 
03:50	62.9	62.9	62.9	78	55.9	0	0	---	0.00	29.968 
03:55	62.9	62.9	62.9	78	55.9	0	0	---	0.00	29.968 
04:00	63.1	63.1	63.1	77	55.8	0	0	---	0.00	29.966 
04:05	63.4	63.4	63.4	77	56.1	0	0	---	0.00	29.966 
04:10	63.4	63.4	63.4	77	56.1	0	0	---	0.00	29.966 
04:15	63.5	63.5	63.5	77	56.2	0	0	---	0.00	29.967 
04:20	63.5	63.5	63.5	76	55.8	0	0	---	0.00	29.967 
04:25	63.5	63.5	63.5	76	55.8	0	0	---	0.00	29.967 
04:30	63.5	63.5	63.5	76	55.8	0	0	---	0.00	29.961 
04:35	63.4	63.4	63.4	77	56.1	0	0	---	0.00	29.961 
04:40	63.2	63.2	63.2	77	55.9	0	0	---	0.00	29.961 
04:45	63.2	63.2	63.2	77	55.9	0	0	---	0.00	29.960 
04:50	63.1	63.1	63.1	77	55.8	0	0	---	0.00	29.960 
04:55	62.9	62.9	62.9	78	55.9	0	0	---	0.00	29.960 
05:00	62.9	62.9	62.9	78	55.9	0	0	---	0.00	29.957 
05:05	62.7	62.7	62.7	78	55.7	0	0	---	0.00	29.957 
05:10	62.6	62.6	62.6	78	55.6	0	0	---	0.00	29.957 
05:15	62.4	62.4	62.4	79	55.8	0	0	---	0.00	29.954 
05:20	62.4	62.4	62.4	79	55.8	0	0	---	0.00	29.954 
05:25	62.3	62.3	62.3	79	55.7	0	0	---	0.00	29.954 
05:30	62.3	62.3	62.3	80	56.0	0	0	---	0.00	29.953 
05:35	62.3	62.3	62.3	80	56.0	0	0	---	0.00	29.953 
05:40	62.4	62.4	62.4	80	56.1	0	0	---	0.00	29.953 
05:45	62.4	62.4	62.4	80	56.1	0	0	---	0.00	29.954 
05:50	62.4	62.4	62.4	80	56.1	0	0	---	0.00	29.954 
05:55	62.4	62.4	62.4	80	56.1	0	0	---	0.00	29.954 
06:00	62.6	62.6	62.6	80	56.3	0	0	---	0.00	29.953 
06:05	62.7	62.7	62.7	79	56.1	0	0	---	0.00	29.953 
06:10	62.7	62.7	62.7	79	56.1	0	0	---	0.00	29.953 
06:15	62.9	62.9	62.9	79	56.3	0	0	---	0.00	29.955 
06:20	62.9	62.9	62.9	78	55.9	0	0	---	0.00	29.955 
06:25	63.1	63.1	63.1	78	56.1	0	0	---	0.00	29.955 
06:30	63.1	63.1	63.1	78	56.1	0	0	---	0.00	29.954 
06:35	63.2	63.2	63.2	78	56.2	0	0	---	0.00	29.954 
06:40	63.2	63.2	63.2	77	55.9	0	0	---	0.00	29.954 
06:45	63.2	63.2	63.2	77	55.9	0	0	---	0.00	29.956 
06:50	63.4	63.4	63.4	77	56.1	0	0	---	0.00	29.956 
06:55	63.5	63.5	63.5	77	56.2	0	0	---	0.00	29.956 
07:00	63.5	63.5	63.5	77	56.2	0	0	---	0.00	29.963 
07:05	63.5	63.5	63.5	77	56.2	0	0	---	0.00	29.963 
07:10	63.5	63.5	63.5	77	56.2	0	0	---	0.00	29.963 
07:15	63.5	63.5	63.5	77	56.2	0	0	---	0.00	29.967 
07:20	63.5	63.5	63.5	77	56.2	0	0	---	0.00	29.967 
07:25	63.5	63.5	63.5	77	56.2	0	0	---	0.00	29.967 
07:30	63.4	63.4	63.4	77	56.1	0	0	---	0.00	29.973 
07:35	63.4	63.4	63.4	77	56.1	0	0	---	0.00	29.973 
07:40	63.4	63.4	63.4	78	56.4	0	0	---	0.00	29.973 
07:45	63.4	63.4	63.4	79	56.8	0	0	---	0.00	29.970 
07:50	63.4	63.4	63.4	80	57.1	0	0	---	0.00	29.970 
07:55	63.2	63.2	63.2	80	56.9	0	0	---	0.00	29.970 
08:00	63.1	63.1	63.1	82	57.5	0	0	---	0.02	29.977 
08:05	62.7	62.7	62.7	83	57.5	0	0	---	0.00	29.977 
08:10	62.4	62.4	62.4	84	57.5	0	0	---	0.00	29.977 
08:15	62.3	62.3	62.3	86	58.1	0	0	---	0.00	29.980 
08:20	62.1	62.1	62.1	87	58.2	0	0	---	0.00	29.980 
08:25	62.0	62.0	62.0	88	58.4	0	0	---	0.01	29.980 
08:30	62.0	62.0	62.0	88	58.4	0	0	---	0.00	29.976 
08:35	61.8	61.8	61.8	89	58.5	0	0	---	0.00	29.976 
08:40	61.8	61.8	61.8	90	58.8	0	0	---	0.00	29.976 
08:45	61.8	61.8	61.8	90	58.8	0	0	---	0.00	29.974 
08:50	61.6	61.6	61.6	90	58.6	0	0	---	0.00	29.974 
08:55	61.6	61.6	61.6	91	58.9	0	0	---	0.00	29.974 
09:00	61.6	61.6	61.6	91	58.9	0	0	---	0.00	29.980 
09:05	61.6	61.6	61.6	91	58.9	0	0	---	0.00	29.980 
09:10	61.6	61.6	61.6	91	58.9	0	0	---	0.00	29.980 
09:15	61.5	61.5	61.5	91	58.8	0	0	---	0.00	29.980 
09:20	61.5	61.5	61.5	91	58.8	0	0	---	0.00	29.980 
09:25	61.5	61.5	61.5	91	58.8	0	0	---	0.00	29.980 
09:30	61.5	61.5	61.5	91	58.8	0	0	---	0.00	29.979 
09:35	61.5	61.5	61.5	91	58.8	0	0	---	0.00	29.979 
09:40	61.5	61.5	61.5	92	59.2	0	0	---	0.00	29.979 
09:45	61.5	61.5	61.5	92	59.2	0	0	---	0.00	29.979 
09:50	61.5	61.5	61.5	92	59.2	0	0	---	0.00	29.979 
09:55	61.5	61.5	61.5	92	59.2	0	0	---	0.00	29.979 
10:00	61.6	61.6	61.6	92	59.2	0	0	---	0.00	29.979 
10:05	61.6	61.6	61.6	92	59.2	0	0	---	0.00	29.979 
10:10	61.6	61.6	61.6	92	59.2	0	0	---	0.00	29.979 
10:15	61.6	61.6	61.6	92	59.2	0	0	---	0.01	29.981 
10:20	61.6	61.6	61.6	92	59.2	0	0	---	0.01	29.981 
10:25	61.6	61.6	61.6	92	59.2	0	0	---	0.01	29.981 
10:30	61.6	61.6	61.6	92	59.2	0	0	---	0.00	29.981 
10:35	61.6	61.6	61.6	92	59.2	0	0	---	0.01	29.981 
10:40	61.6	61.6	61.6	92	59.2	0	0	---	0.00	29.981 
10:45	61.8	61.8	61.8	92	59.4	0	0	---	0.00	29.980 
10:50	62.0	62.0	62.0	93	59.9	0	0	---	0.00	29.980 
10:55	62.1	62.1	62.1	93	60.0	0	0	---	0.00	29.980 
11:00	62.1	62.1	62.1	93	60.0	0	0	---	0.00	29.983 
11:05	62.3	62.3	62.3	93	60.2	0	0	---	0.00	29.983 
11:10	62.3	62.3	62.3	93	60.2	0	0	---	0.00	29.983 
11:15	62.3	62.3	62.3	93	60.2	0	0	---	0.00	29.984 
11:20	62.3	62.3	62.3	93	60.2	0	1	45	0.00	29.984 
11:25	62.3	62.3	62.3	93	60.2	0	1	45	0.00	29.984 
11:30	62.3	62.3	62.3	93	60.2	0	1	45	0.00	29.986 
11:35	62.3	62.3	62.3	93	60.2	0	1	45	0.00	29.986 
11:40	62.4	62.4	62.4	93	60.3	0	2	45	0.00	29.986 
11:45	62.4	62.4	62.4	93	60.3	0	2	45	0.00	29.986 
11:50	62.4	62.4	62.4	93	60.3	0	1	45	0.00	29.986 
11:55	62.4	62.4	62.4	94	60.6	0	1	45	0.00	29.986 
12:00	62.4	62.4	62.4	94	60.6	0	1	45	0.00	29.981 
12:05	62.6	62.6	62.6	94	60.8	0	0	---	0.00	29.981 
12:10	62.6	62.6	62.6	94	60.8	0	1	45	0.01	29.981 
12:15	62.6	62.6	62.6	94	60.8	0	1	315	0.00	29.981 
12:20	62.7	62.7	62.7	94	60.9	0	0	---	0.00	29.981 
12:25	62.7	62.7	62.7	94	60.9	0	1	315	0.00	29.981 
12:30	62.7	62.7	62.7	94	60.9	0	1	315	0.00	29.980 
12:35	62.6	62.6	62.6	94	60.8	0	2	315	0.00	29.980 
12:40	62.6	62.6	62.6	94	60.8	0	0	---	0.00	29.980 
12:45	62.6	62.6	62.6	94	60.8	0	0	---	0.00	29.981 
12:50	62.4	62.4	62.4	94	60.6	0	1	315	0.00	29.981 
12:55	62.4	62.4	62.4	94	60.6	0	0	---	0.00	29.981 
13:00	62.4	62.4	62.4	94	60.6	0	0	---	0.00	29.980 
13:05	62.6	62.6	62.6	94	60.8	0	0	---	0.00	29.980 
13:10	62.6	62.6	62.6	94	60.8	0	0	---	0.00	29.980 
13:15	62.6	62.6	62.6	94	60.8	0	1	315	0.00	29.976 
13:20	62.6	62.6	62.6	94	60.8	0	1	315	0.00	29.976 
13:25	62.7	62.7	62.7	94	60.9	0	1	315	0.00	29.976 
13:30	62.6	62.6	62.6	94	60.8	0	1	315	0.00	29.978 
13:35	62.6	62.6	62.6	94	60.8	0	1	315	0.00	29.978 
13:40	62.6	62.6	62.6	94	60.8	0	1	315	0.00	29.978 
13:45	62.7	62.7	62.7	95	61.2	0	1	315	0.00	29.972 
13:50	62.7	62.7	62.7	95	61.2	0	0	---	0.00	29.972 
13:55	62.9	62.9	62.9	95	61.4	0	1	315	0.00	29.972 
14:00	62.7	62.7	62.7	95	61.2	0	1	315	0.00	29.965 
14:05	62.9	62.9	62.9	95	61.4	0	1	315	0.00	29.965 
14:10	62.9	62.9	62.9	95	61.4	0	1	315	0.00	29.965 
14:15	62.7	62.7	62.7	95	61.2	0	0	---	0.00	29.965 
14:20	62.9	62.9	62.9	95	61.4	0	1	315	0.00	29.965 
14:25	62.9	62.9	62.9	95	61.4	0	0	---	0.00	29.965 
14:30	62.9	62.9	62.9	95	61.4	0	0	---	0.00	29.964 
14:35	62.9	62.9	62.9	95	61.4	0	1	315	0.00	29.964 
14:40	62.9	62.9	62.9	95	61.4	0	2	315	0.00	29.964 
14:45	62.7	62.7	62.7	95	61.2	0	2	315	0.00	29.960 
14:50	62.6	62.6	62.6	95	61.1	0	1	315	0.00	29.960 
14:55	62.6	62.6	62.6	95	61.1	0	2	315	0.00	29.960 
15:00	62.4	62.4	62.4	94	60.6	1	2	315	0.00	29.956 
15:05	62.4	62.4	62.4	95	60.9	0	1	315	0.00	29.956 
15:10	62.4	62.4	62.4	95	60.9	0	2	315	0.00	29.956 
15:15	62.3	62.3	62.3	94	60.5	1	3	315	0.00	29.957 
15:20	62.1	62.1	62.1	94	60.3	0	2	315	0.00	29.957 
15:25	62.1	62.1	62.1	94	60.3	0	2	315	0.00	29.957 
15:30	62.0	62.0	62.0	94	60.2	1	3	292	0.00	29.960 
15:35	61.8	61.8	61.8	94	60.1	1	2	292	0.00	29.960 
15:40	61.6	61.6	61.6	94	59.9	1	2	292	0.00	29.960 
15:45	61.3	61.3	61.3	94	59.6	1	2	292	0.00	29.964 
15:50	61.2	61.2	61.2	94	59.5	0	2	292	0.00	29.964 
15:55	61.2	61.2	61.2	94	59.5	0	2	292	0.00	29.964 
16:00	61.0	61.0	61.0	94	59.3	0	2	292	0.00	29.963 
16:05	61.2	61.2	61.2	94	59.5	0	2	292	0.00	29.963 
16:10	61.0	61.0	61.0	94	59.3	1	5	292	0.00	29.963 
16:15	60.5	60.5	60.5	93	58.5	1	4	338	0.00	29.964 
16:20	60.5	60.5	60.5	93	58.5	1	3	315	0.00	29.964 
16:25	60.5	60.5	60.5	93	58.5	0	3	315	0.00	29.964 
16:30	60.5	60.5	60.5	93	58.5	0	3	315	0.00	29.966 
16:35	60.5	60.5	60.5	93	58.5	0	2	315	0.00	29.966 
16:40	60.5	60.5	60.5	92	58.2	1	3	315	0.00	29.966 
16:45	60.7	60.7	60.7	92	58.4	0	3	315	0.00	29.967 
16:50	60.7	60.7	60.7	92	58.4	0	2	315	0.00	29.967 
16:55	60.9	60.9	60.9	91	58.3	0	2	315	0.00	29.967 
17:00	60.9	60.9	60.9	91	58.3	0	2	315	0.00	29.966 
17:05	61.0	61.0	61.0	91	58.4	0	1	315	0.00	29.966 
17:10	61.2	61.2	61.2	90	58.2	0	2	315	0.00	29.966 
17:15	61.2	61.2	61.2	90	58.2	0	3	315	0.00	29.963 
17:20	61.2	61.2	61.2	90	58.2	0	1	315	0.00	29.963 
17:25	61.2	61.2	61.2	90	58.2	0	1	315	0.00	29.963 
17:30	61.2	61.2	61.2	90	58.2	0	1	315	0.00	29.966 
17:35	61.2	61.2	61.2	89	57.9	0	0	---	0.00	29.966 
17:40	61.2	61.2	61.2	89	57.9	0	0	---	0.00	29.966 
17:45	61.2	61.2	61.2	89	57.9	0	1	315	0.00	29.967 
17:50	61.2	61.2	61.2	89	57.9	0	1	315	0.00	29.967 
17:55	61.3	61.3	61.3	89	58.0	0	1	315	0.00	29.967 
18:00	61.3	61.3	61.3	89	58.0	0	0	---	0.00	29.966 
18:05	61.3	61.3	61.3	89	58.0	0	0	---	0.00	29.966 
18:10	61.3	61.3	61.3	89	58.0	0	1	315	0.00	29.966 
18:15	61.3	61.3	61.3	89	58.0	0	0	---	0.00	29.969 
18:20	61.3	61.3	61.3	89	58.0	0	0	---	0.00	29.969 
18:25	61.5	61.5	61.5	89	58.2	0	0	---	0.00	29.969 
18:30	61.5	61.5	61.5	88	57.9	0	1	315	0.00	29.974 
18:35	61.5	61.5	61.5	88	57.9	0	0	---	0.00	29.974 
18:40	61.5	61.5	61.5	88	57.9	0	0	---	0.00	29.974 
18:45	61.5	61.5	61.5	88	57.9	0	0	---	0.00	29.972 
18:50	61.5	61.5	61.5	88	57.9	0	0	---	0.00	29.972 
18:55	61.5	61.5	61.5	88	57.9	0	0	---	0.00	29.972 
19:00	61.5	61.5	61.5	88	57.9	0	0	---	0.00	29.976 
19:05	61.5	61.5	61.5	88	57.9	0	0	---	0.00	29.976 
19:10	61.3	61.3	61.3	88	57.7	0	0	---	0.00	29.976 
19:15	61.3	61.3	61.3	88	57.7	0	1	315	0.00	29.976 
19:20	61.3	61.3	61.3	88	57.7	0	0	---	0.00	29.976 
19:25	61.2	61.2	61.2	88	57.6	0	1	315	0.00	29.976 
19:30	61.2	61.2	61.2	88	57.6	0	0	---	0.00	29.977 
19:35	61.2	61.2	61.2	88	57.6	0	0	---	0.00	29.977 
19:40	61.0	61.0	61.0	88	57.4	0	0	---	0.00	29.977 
19:45	61.0	61.0	61.0	88	57.4	0	0	---	0.00	29.978 
19:50	60.9	60.9	60.9	88	57.3	0	0	---	0.00	29.978 
19:55	60.9	60.9	60.9	88	57.3	0	0	---	0.00	29.978 
20:00	60.9	60.9	60.9	88	57.3	0	1	315	0.00	29.975 
20:05	60.7	60.7	60.7	88	57.1	0	1	315	0.00	29.975 
20:10	60.5	60.5	60.5	88	56.9	0	0	---	0.00	29.975 
20:15	60.4	60.4	60.4	88	56.8	0	0	---	0.00	29.976 
20:20	60.1	60.1	60.1	88	56.5	0	0	---	0.00	29.976 
20:25	59.9	59.9	59.9	89	56.6	0	0	---	0.00	29.976 
20:30	59.6	59.6	59.6	89	56.4	0	0	---	0.00	29.981 
20:35	59.6	59.6	59.6	89	56.4	0	0	---	0.00	29.981 
20:40	59.5	59.5	59.5	89	56.3	0	0	---	0.00	29.981 
20:45	59.3	59.3	59.3	90	56.4	0	0	---	0.00	29.981 
20:50	59.3	59.3	59.3	90	56.4	0	0	---	0.00	29.981 
20:55	59.2	59.2	59.2	90	56.3	0	0	---	0.00	29.981 
21:00	59.0	59.0	59.0	91	56.4	0	0	---	0.00	29.985 
21:05	58.9	58.9	58.9	91	56.3	0	0	---	0.00	29.985 
21:10	58.7	58.7	58.7	91	56.1	0	0	---	0.00	29.985 
21:15	58.6	58.6	58.6	91	56.0	0	0	---	0.00	29.986 
21:20	58.4	58.4	58.4	91	55.8	0	0	---	0.00	29.986 
21:25	58.3	58.3	58.3	91	55.7	0	0	---	0.00	29.986 
21:30	58.1	58.1	58.1	91	55.5	0	0	---	0.00	29.986 
21:35	58.0	58.0	58.0	91	55.4	0	0	---	0.00	29.986 
21:40	57.8	57.8	57.8	92	55.5	0	0	---	0.00	29.986 
21:45	57.6	57.6	57.6	92	55.3	0	0	---	0.00	29.986 
21:50	57.5	57.5	57.5	92	55.2	0	0	---	0.00	29.986 
21:55	57.3	57.3	57.3	92	55.0	0	0	---	0.00	29.986 
22:00	57.0	57.0	57.0	92	54.7	0	0	---	0.00	29.980 
22:05	56.7	56.7	56.7	92	54.4	0	0	---	0.00	29.980 
22:10	56.6	56.6	56.6	92	54.3	0	0	---	0.00	29.980 
22:15	56.5	56.5	56.5	92	54.2	0	0	---	0.00	29.980 
22:20	56.2	56.2	56.2	92	53.9	0	0	---	0.00	29.980 
22:25	55.9	55.9	55.9	92	53.6	0	0	---	0.00	29.980 
22:30	55.7	55.7	55.7	92	53.4	0	0	---	0.00	29.982 
22:35	55.6	55.6	55.6	92	53.3	0	0	---	0.00	29.982 
22:40	55.3	55.3	55.3	92	53.0	0	0	---	0.00	29.982 
22:45	55.1	55.1	55.1	92	52.8	0	0	---	0.00	29.988 
22:50	54.8	54.8	54.8	92	52.5	0	0	---	0.00	29.988 
22:55	54.7	54.7	54.7	93	52.7	0	0	---	0.00	29.988 
23:00	54.5	54.5	54.5	93	52.5	0	0	---	0.00	29.989 
23:05	54.5	54.5	54.5	93	52.5	0	0	---	0.00	29.989 
23:10	54.7	54.7	54.7	93	52.7	0	0	---	0.00	29.989 
23:15	54.7	54.7	54.7	93	52.7	0	0	---	0.00	29.990 
23:20	54.7	54.7	54.7	93	52.7	0	0	---	0.00	29.990 
23:25	54.5	54.5	54.5	94	52.8	0	0	---	0.00	29.990 
23:30	54.4	54.4	54.4	94	52.7	0	0	---	0.00	29.990 
23:35	54.4	54.4	54.4	94	52.7	0	0	---	0.00	29.990 
23:40	54.4	54.4	54.4	94	52.7	0	0	---	0.00	29.990 
23:45	54.4	54.4	54.4	94	52.7	0	0	---	0.00	29.991 
23:50	54.5	54.5	54.5	94	52.8	0	0	---	0.00	29.991 
23:55	54.5	54.5	54.5	94	52.8	0	0	---	0.00	29.991 

CoCoRaHS
IN-AL-39
A2 Web Hosting
Creative Commons License
GoDaddy
search engine by freefind advanced

loaded 2018-11-12 19:22:53 • last modified 2010-11-18 10:43:29
Privacy PolicyDisclaimer
• wx.awcolley.com is powered by PmWiki v.2002016 •
• all content (unless otherwise noted) © 2018 A W Colley